sensor_id;sensor_type;location;lat;lon;timestamp;P1;durP1;ratioP1;P2;durP2;ratioP2
18610;SDS011;9435;52.122;5.502;2022-10-17T00:02:23;16.95;;;8.93;;
18610;SDS011;9435;52.122;5.502;2022-10-17T00:04:50;17.80;;;9.48;;
18610;SDS011;9435;52.122;5.502;2022-10-17T00:07:17;13.65;;;9.32;;
18610;SDS011;9435;52.122;5.502;2022-10-17T00:09:45;16.13;;;9.35;;
18610;SDS011;9435;52.122;5.502;2022-10-17T00:12:12;14.68;;;9.35;;
18610;SDS011;9435;52.122;5.502;2022-10-17T00:14:39;13.65;;;9.05;;
18610;SDS011;9435;52.122;5.502;2022-10-17T00:17:06;15.52;;;9.27;;
18610;SDS011;9435;52.122;5.502;2022-10-17T00:19:33;14.15;;;8.90;;
18610;SDS011;9435;52.122;5.502;2022-10-17T00:22:00;15.02;;;10.15;;
18610;SDS011;9435;52.122;5.502;2022-10-17T00:24:28;12.30;;;9.43;;
18610;SDS011;9435;52.122;5.502;2022-10-17T00:26:57;12.43;;;9.00;;
18610;SDS011;9435;52.122;5.502;2022-10-17T00:29:24;14.50;;;9.02;;
18610;SDS011;9435;52.122;5.502;2022-10-17T00:31:52;12.27;;;8.90;;
18610;SDS011;9435;52.122;5.502;2022-10-17T00:34:20;14.88;;;9.43;;
18610;SDS011;9435;52.122;5.502;2022-10-17T00:36:47;15.38;;;9.43;;
18610;SDS011;9435;52.122;5.502;2022-10-17T00:39:14;13.82;;;9.48;;
18610;SDS011;9435;52.122;5.502;2022-10-17T00:41:42;15.43;;;10.00;;
18610;SDS011;9435;52.122;5.502;2022-10-17T00:47:13;15.38;;;9.73;;
18610;SDS011;9435;52.122;5.502;2022-10-17T00:49:42;14.05;;;9.70;;
18610;SDS011;9435;52.122;5.502;2022-10-17T00:52:10;15.13;;;10.35;;
18610;SDS011;9435;52.122;5.502;2022-10-17T00:54:43;14.35;;;9.65;;
18610;SDS011;9435;52.122;5.502;2022-10-17T00:57:13;15.25;;;9.95;;
18610;SDS011;9435;52.122;5.502;2022-10-17T00:59:42;18.25;;;11.18;;
18610;SDS011;9435;52.122;5.502;2022-10-17T01:02:15;20.45;;;11.63;;
18610;SDS011;9435;52.122;5.502;2022-10-17T01:04:45;17.38;;;10.63;;
18610;SDS011;9435;52.122;5.502;2022-10-17T01:07:14;18.02;;;11.00;;
18610;SDS011;9435;52.122;5.502;2022-10-17T01:09:41;18.55;;;11.55;;
18610;SDS011;9435;52.122;5.502;2022-10-17T01:12:12;16.55;;;10.70;;
18610;SDS011;9435;52.122;5.502;2022-10-17T01:14:47;19.13;;;10.50;;
18610;SDS011;9435;52.122;5.502;2022-10-17T01:17:26;16.48;;;10.75;;
18610;SDS011;9435;52.122;5.502;2022-10-17T01:20:10;15.75;;;10.45;;
18610;SDS011;9435;52.122;5.502;2022-10-17T01:22:57;16.38;;;10.45;;
18610;SDS011;9435;52.122;5.502;2022-10-17T01:25:35;15.45;;;10.38;;
18610;SDS011;9435;52.122;5.502;2022-10-17T01:28:14;17.67;;;11.73;;
18610;SDS011;9435;52.122;5.502;2022-10-17T01:30:56;18.48;;;11.48;;
18610;SDS011;9435;52.122;5.502;2022-10-17T01:33:31;18.08;;;11.20;;
18610;SDS011;9435;52.122;5.502;2022-10-17T01:36:07;18.88;;;11.20;;
18610;SDS011;9435;52.122;5.502;2022-10-17T01:38:40;22.23;;;12.20;;
18610;SDS011;9435;52.122;5.502;2022-10-17T01:41:13;22.63;;;13.20;;
18610;SDS011;9435;52.122;5.502;2022-10-17T01:43:49;20.65;;;13.50;;
18610;SDS011;9435;52.122;5.502;2022-10-17T01:46:22;18.98;;;12.95;;
18610;SDS011;9435;52.122;5.502;2022-10-17T01:48:54;18.73;;;12.90;;
18610;SDS011;9435;52.122;5.502;2022-10-17T01:51:23;20.73;;;13.07;;
18610;SDS011;9435;52.122;5.502;2022-10-17T01:53:56;20.88;;;12.82;;
18610;SDS011;9435;52.122;5.502;2022-10-17T01:56:26;20.88;;;13.32;;
18610;SDS011;9435;52.122;5.502;2022-10-17T01:58:57;25.60;;;14.23;;
18610;SDS011;9435;52.122;5.502;2022-10-17T02:01:29;20.08;;;13.50;;
18610;SDS011;9435;52.122;5.502;2022-10-17T02:03:57;24.05;;;14.85;;
18610;SDS011;9435;52.122;5.502;2022-10-17T02:06:25;23.00;;;13.82;;
18610;SDS011;9435;52.122;5.502;2022-10-17T02:08:52;24.70;;;15.38;;
18610;SDS011;9435;52.122;5.502;2022-10-17T02:11:20;24.95;;;15.65;;
18610;SDS011;9435;52.122;5.502;2022-10-17T02:13:54;24.70;;;14.82;;
18610;SDS011;9435;52.122;5.502;2022-10-17T02:16:41;26.35;;;15.45;;
18610;SDS011;9435;52.122;5.502;2022-10-17T02:19:31;22.35;;;14.75;;
18610;SDS011;9435;52.122;5.502;2022-10-17T02:22:06;25.45;;;16.02;;
18610;SDS011;9435;52.122;5.502;2022-10-17T02:24:44;26.92;;;16.08;;
18610;SDS011;9435;52.122;5.502;2022-10-17T02:27:22;27.10;;;16.85;;
18610;SDS011;9435;52.122;5.502;2022-10-17T02:29:56;25.73;;;15.88;;
18610;SDS011;9435;52.122;5.502;2022-10-17T02:32:32;28.65;;;17.40;;
18610;SDS011;9435;52.122;5.502;2022-10-17T02:35:02;28.92;;;18.05;;
18610;SDS011;9435;52.122;5.502;2022-10-17T02:37:33;28.40;;;17.15;;
18610;SDS011;9435;52.122;5.502;2022-10-17T02:40:02;31.75;;;18.40;;
18610;SDS011;9435;52.122;5.502;2022-10-17T02:42:32;27.35;;;16.85;;
18610;SDS011;9435;52.122;5.502;2022-10-17T02:45:00;30.25;;;17.50;;
18610;SDS011;9435;52.122;5.502;2022-10-17T02:47:31;29.55;;;16.98;;
18610;SDS011;9435;52.122;5.502;2022-10-17T02:50:01;30.35;;;17.75;;
18610;SDS011;9435;52.122;5.502;2022-10-17T02:52:31;31.05;;;16.83;;
18610;SDS011;9435;52.122;5.502;2022-10-17T02:55:05;30.67;;;17.77;;
18610;SDS011;9435;52.122;5.502;2022-10-17T02:57:37;28.35;;;17.02;;
18610;SDS011;9435;52.122;5.502;2022-10-17T03:00:08;27.88;;;17.00;;
18610;SDS011;9435;52.122;5.502;2022-10-17T03:02:40;30.05;;;16.92;;
18610;SDS011;9435;52.122;5.502;2022-10-17T03:05:09;34.88;;;17.65;;
18610;SDS011;9435;52.122;5.502;2022-10-17T03:07:38;32.03;;;18.35;;
18610;SDS011;9435;52.122;5.502;2022-10-17T03:10:05;28.23;;;16.98;;
18610;SDS011;9435;52.122;5.502;2022-10-17T03:12:32;28.70;;;17.30;;
18610;SDS011;9435;52.122;5.502;2022-10-17T03:14:59;30.30;;;17.75;;
18610;SDS011;9435;52.122;5.502;2022-10-17T03:17:26;29.10;;;17.45;;
18610;SDS011;9435;52.122;5.502;2022-10-17T03:19:54;30.77;;;17.38;;
18610;SDS011;9435;52.122;5.502;2022-10-17T03:22:21;31.25;;;18.27;;
18610;SDS011;9435;52.122;5.502;2022-10-17T03:24:48;26.90;;;17.00;;
18610;SDS011;9435;52.122;5.502;2022-10-17T03:27:15;31.55;;;17.73;;
18610;SDS011;9435;52.122;5.502;2022-10-17T03:29:42;34.25;;;17.70;;
18610;SDS011;9435;52.122;5.502;2022-10-17T03:32:09;30.85;;;17.17;;
18610;SDS011;9435;52.122;5.502;2022-10-17T03:34:36;34.13;;;17.48;;
18610;SDS011;9435;52.122;5.502;2022-10-17T03:37:04;35.15;;;18.25;;
18610;SDS011;9435;52.122;5.502;2022-10-17T03:39:32;30.08;;;17.40;;
18610;SDS011;9435;52.122;5.502;2022-10-17T03:41:58;31.92;;;17.83;;
18610;SDS011;9435;52.122;5.502;2022-10-17T03:44:25;33.72;;;18.20;;
18610;SDS011;9435;52.122;5.502;2022-10-17T03:46:52;32.30;;;18.00;;
18610;SDS011;9435;52.122;5.502;2022-10-17T03:49:19;33.35;;;17.50;;
18610;SDS011;9435;52.122;5.502;2022-10-17T03:51:46;28.75;;;17.27;;
18610;SDS011;9435;52.122;5.502;2022-10-17T03:54:14;28.73;;;16.95;;
18610;SDS011;9435;52.122;5.502;2022-10-17T03:56:42;28.05;;;16.83;;
18610;SDS011;9435;52.122;5.502;2022-10-17T03:59:10;25.85;;;16.27;;
18610;SDS011;9435;52.122;5.502;2022-10-17T04:01:38;31.88;;;17.65;;
18610;SDS011;9435;52.122;5.502;2022-10-17T04:04:05;27.23;;;16.85;;
18610;SDS011;9435;52.122;5.502;2022-10-17T04:06:33;31.65;;;17.70;;
18610;SDS011;9435;52.122;5.502;2022-10-17T04:09:00;28.95;;;16.83;;
18610;SDS011;9435;52.122;5.502;2022-10-17T04:11:29;27.27;;;16.70;;
18610;SDS011;9435;52.122;5.502;2022-10-17T04:13:56;27.85;;;16.48;;
18610;SDS011;9435;52.122;5.502;2022-10-17T04:16:24;25.60;;;16.30;;
18610;SDS011;9435;52.122;5.502;2022-10-17T04:18:51;30.38;;;16.08;;
18610;SDS011;9435;52.122;5.502;2022-10-17T04:21:19;29.13;;;16.52;;
18610;SDS011;9435;52.122;5.502;2022-10-17T04:23:47;30.77;;;16.77;;
18610;SDS011;9435;52.122;5.502;2022-10-17T04:26:14;29.85;;;17.30;;
18610;SDS011;9435;52.122;5.502;2022-10-17T04:28:42;26.92;;;16.45;;
18610;SDS011;9435;52.122;5.502;2022-10-17T04:31:10;29.88;;;17.23;;
18610;SDS011;9435;52.122;5.502;2022-10-17T04:33:39;28.75;;;16.40;;
18610;SDS011;9435;52.122;5.502;2022-10-17T04:36:09;32.58;;;16.30;;
18610;SDS011;9435;52.122;5.502;2022-10-17T04:38:37;32.05;;;17.27;;
18610;SDS011;9435;52.122;5.502;2022-10-17T04:41:05;27.65;;;16.45;;
18610;SDS011;9435;52.122;5.502;2022-10-17T04:43:34;29.13;;;16.98;;
18610;SDS011;9435;52.122;5.502;2022-10-17T04:46:05;27.23;;;16.85;;
18610;SDS011;9435;52.122;5.502;2022-10-17T04:48:33;28.63;;;16.30;;
18610;SDS011;9435;52.122;5.502;2022-10-17T04:51:01;26.55;;;16.65;;
18610;SDS011;9435;52.122;5.502;2022-10-17T04:53:30;32.97;;;17.42;;
18610;SDS011;9435;52.122;5.502;2022-10-17T04:55:57;25.33;;;16.27;;
18610;SDS011;9435;52.122;5.502;2022-10-17T04:58:24;33.20;;;17.77;;
18610;SDS011;9435;52.122;5.502;2022-10-17T05:00:53;29.15;;;17.30;;
18610;SDS011;9435;52.122;5.502;2022-10-17T05:03:21;28.63;;;17.13;;
18610;SDS011;9435;52.122;5.502;2022-10-17T05:05:48;27.10;;;16.60;;
18610;SDS011;9435;52.122;5.502;2022-10-17T05:08:16;31.10;;;17.02;;
18610;SDS011;9435;52.122;5.502;2022-10-17T05:10:43;28.25;;;16.92;;
18610;SDS011;9435;52.122;5.502;2022-10-17T05:13:11;28.05;;;17.00;;
18610;SDS011;9435;52.122;5.502;2022-10-17T05:15:38;28.23;;;16.60;;
18610;SDS011;9435;52.122;5.502;2022-10-17T05:18:05;29.90;;;16.90;;
18610;SDS011;9435;52.122;5.502;2022-10-17T05:20:34;30.42;;;16.42;;
18610;SDS011;9435;52.122;5.502;2022-10-17T05:23:01;27.30;;;15.38;;
18610;SDS011;9435;52.122;5.502;2022-10-17T05:25:28;28.70;;;16.33;;
18610;SDS011;9435;52.122;5.502;2022-10-17T05:27:55;26.63;;;14.48;;
18610;SDS011;9435;52.122;5.502;2022-10-17T05:30:22;22.98;;;14.68;;
18610;SDS011;9435;52.122;5.502;2022-10-17T05:32:51;24.98;;;15.50;;
18610;SDS011;9435;52.122;5.502;2022-10-17T05:35:19;25.50;;;16.27;;
18610;SDS011;9435;52.122;5.502;2022-10-17T05:37:48;34.47;;;21.58;;
18610;SDS011;9435;52.122;5.502;2022-10-17T05:40:15;26.75;;;15.80;;
18610;SDS011;9435;52.122;5.502;2022-10-17T05:42:44;25.95;;;15.48;;
18610;SDS011;9435;52.122;5.502;2022-10-17T05:45:12;26.77;;;15.63;;
18610;SDS011;9435;52.122;5.502;2022-10-17T05:47:39;25.20;;;14.27;;
18610;SDS011;9435;52.122;5.502;2022-10-17T05:50:07;27.00;;;14.93;;
18610;SDS011;9435;52.122;5.502;2022-10-17T05:52:34;25.70;;;15.52;;
18610;SDS011;9435;52.122;5.502;2022-10-17T05:55:03;25.45;;;14.73;;
18610;SDS011;9435;52.122;5.502;2022-10-17T05:57:31;26.58;;;14.48;;
18610;SDS011;9435;52.122;5.502;2022-10-17T05:59:58;26.92;;;15.50;;
18610;SDS011;9435;52.122;5.502;2022-10-17T06:02:25;22.90;;;14.35;;
18610;SDS011;9435;52.122;5.502;2022-10-17T06:04:52;26.10;;;14.95;;
18610;SDS011;9435;52.122;5.502;2022-10-17T06:07:19;26.75;;;15.32;;
18610;SDS011;9435;52.122;5.502;2022-10-17T06:09:46;24.38;;;15.45;;
18610;SDS011;9435;52.122;5.502;2022-10-17T06:12:15;26.25;;;14.65;;
18610;SDS011;9435;52.122;5.502;2022-10-17T06:14:42;24.75;;;14.68;;
18610;SDS011;9435;52.122;5.502;2022-10-17T06:17:09;24.88;;;14.98;;
18610;SDS011;9435;52.122;5.502;2022-10-17T06:19:36;25.65;;;14.88;;
18610;SDS011;9435;52.122;5.502;2022-10-17T06:22:05;25.15;;;15.60;;
18610;SDS011;9435;52.122;5.502;2022-10-17T06:24:32;30.30;;;15.65;;
18610;SDS011;9435;52.122;5.502;2022-10-17T06:26:59;28.92;;;15.23;;
18610;SDS011;9435;52.122;5.502;2022-10-17T06:29:27;27.98;;;15.52;;
18610;SDS011;9435;52.122;5.502;2022-10-17T06:31:54;24.85;;;15.27;;
18610;SDS011;9435;52.122;5.502;2022-10-17T06:34:21;28.65;;;15.23;;
18610;SDS011;9435;52.122;5.502;2022-10-17T06:36:48;25.92;;;14.95;;
18610;SDS011;9435;52.122;5.502;2022-10-17T06:39:15;23.98;;;15.18;;
18610;SDS011;9435;52.122;5.502;2022-10-17T06:41:42;25.55;;;15.23;;
18610;SDS011;9435;52.122;5.502;2022-10-17T06:44:09;31.83;;;15.63;;
18610;SDS011;9435;52.122;5.502;2022-10-17T06:46:38;26.13;;;15.50;;
18610;SDS011;9435;52.122;5.502;2022-10-17T06:49:05;27.38;;;15.85;;
18610;SDS011;9435;52.122;5.502;2022-10-17T06:51:34;25.70;;;15.13;;
18610;SDS011;9435;52.122;5.502;2022-10-17T06:54:02;25.70;;;15.70;;
18610;SDS011;9435;52.122;5.502;2022-10-17T06:56:29;25.65;;;15.13;;
18610;SDS011;9435;52.122;5.502;2022-10-17T06:58:55;23.98;;;14.70;;
18610;SDS011;9435;52.122;5.502;2022-10-17T07:01:22;24.63;;;14.63;;
18610;SDS011;9435;52.122;5.502;2022-10-17T07:03:52;22.13;;;14.00;;
18610;SDS011;9435;52.122;5.502;2022-10-17T07:06:19;25.67;;;14.65;;
18610;SDS011;9435;52.122;5.502;2022-10-17T07:08:48;22.92;;;14.35;;
18610;SDS011;9435;52.122;5.502;2022-10-17T07:11:16;25.42;;;14.07;;
18610;SDS011;9435;52.122;5.502;2022-10-17T07:13:44;24.67;;;14.65;;
18610;SDS011;9435;52.122;5.502;2022-10-17T07:16:12;24.48;;;14.63;;
18610;SDS011;9435;52.122;5.502;2022-10-17T07:18:39;25.05;;;15.10;;
18610;SDS011;9435;52.122;5.502;2022-10-17T07:21:08;27.67;;;14.95;;
18610;SDS011;9435;52.122;5.502;2022-10-17T07:23:36;24.50;;;15.20;;
18610;SDS011;9435;52.122;5.502;2022-10-17T07:26:04;26.40;;;14.50;;
18610;SDS011;9435;52.122;5.502;2022-10-17T07:28:33;26.20;;;15.13;;
18610;SDS011;9435;52.122;5.502;2022-10-17T07:31:03;24.25;;;14.40;;
18610;SDS011;9435;52.122;5.502;2022-10-17T07:33:31;28.40;;;15.27;;
18610;SDS011;9435;52.122;5.502;2022-10-17T07:35:58;25.05;;;13.90;;
18610;SDS011;9435;52.122;5.502;2022-10-17T07:38:27;23.60;;;14.35;;
18610;SDS011;9435;52.122;5.502;2022-10-17T07:40:54;25.13;;;14.70;;
18610;SDS011;9435;52.122;5.502;2022-10-17T07:43:21;20.88;;;13.80;;
18610;SDS011;9435;52.122;5.502;2022-10-17T07:45:48;22.75;;;14.38;;
18610;SDS011;9435;52.122;5.502;2022-10-17T07:48:16;21.95;;;14.23;;
18610;SDS011;9435;52.122;5.502;2022-10-17T07:50:43;21.58;;;13.15;;
18610;SDS011;9435;52.122;5.502;2022-10-17T07:53:11;24.52;;;14.40;;
18610;SDS011;9435;52.122;5.502;2022-10-17T07:55:39;21.92;;;13.63;;
18610;SDS011;9435;52.122;5.502;2022-10-17T07:58:07;22.90;;;13.65;;
18610;SDS011;9435;52.122;5.502;2022-10-17T08:00:35;22.20;;;13.75;;
18610;SDS011;9435;52.122;5.502;2022-10-17T08:03:02;22.23;;;14.07;;
18610;SDS011;9435;52.122;5.502;2022-10-17T08:05:30;24.25;;;14.20;;
18610;SDS011;9435;52.122;5.502;2022-10-17T08:07:57;23.73;;;14.25;;
18610;SDS011;9435;52.122;5.502;2022-10-17T08:10:24;21.20;;;13.07;;
18610;SDS011;9435;52.122;5.502;2022-10-17T08:12:55;21.02;;;13.30;;
18610;SDS011;9435;52.122;5.502;2022-10-17T08:15:23;21.15;;;13.23;;
18610;SDS011;9435;52.122;5.502;2022-10-17T08:17:52;25.15;;;13.82;;
18610;SDS011;9435;52.122;5.502;2022-10-17T08:20:19;24.70;;;13.70;;
18610;SDS011;9435;52.122;5.502;2022-10-17T08:22:50;24.58;;;13.93;;
18610;SDS011;9435;52.122;5.502;2022-10-17T08:25:17;26.90;;;13.68;;
18610;SDS011;9435;52.122;5.502;2022-10-17T08:27:44;23.33;;;13.77;;
18610;SDS011;9435;52.122;5.502;2022-10-17T08:30:13;22.77;;;14.32;;
18610;SDS011;9435;52.122;5.502;2022-10-17T08:32:40;24.90;;;15.20;;
18610;SDS011;9435;52.122;5.502;2022-10-17T08:35:07;24.58;;;15.13;;
18610;SDS011;9435;52.122;5.502;2022-10-17T08:37:35;23.67;;;14.77;;
18610;SDS011;9435;52.122;5.502;2022-10-17T08:40:02;24.42;;;15.13;;
18610;SDS011;9435;52.122;5.502;2022-10-17T08:42:33;22.90;;;14.40;;
18610;SDS011;9435;52.122;5.502;2022-10-17T08:45:14;25.80;;;15.50;;
18610;SDS011;9435;52.122;5.502;2022-10-17T08:47:51;24.17;;;15.70;;
18610;SDS011;9435;52.122;5.502;2022-10-17T08:50:23;26.33;;;15.88;;
18610;SDS011;9435;52.122;5.502;2022-10-17T08:52:54;27.23;;;15.50;;
18610;SDS011;9435;52.122;5.502;2022-10-17T08:55:28;29.17;;;15.80;;
18610;SDS011;9435;52.122;5.502;2022-10-17T08:57:58;29.52;;;15.23;;
18610;SDS011;9435;52.122;5.502;2022-10-17T09:00:27;28.95;;;16.35;;
18610;SDS011;9435;52.122;5.502;2022-10-17T09:03:00;30.70;;;16.05;;
18610;SDS011;9435;52.122;5.502;2022-10-17T09:05:42;25.45;;;16.13;;
18610;SDS011;9435;52.122;5.502;2022-10-17T09:08:24;28.45;;;16.35;;
18610;SDS011;9435;52.122;5.502;2022-10-17T09:11:08;26.65;;;15.55;;
18610;SDS011;9435;52.122;5.502;2022-10-17T09:13:51;29.08;;;15.27;;
18610;SDS011;9435;52.122;5.502;2022-10-17T09:16:37;27.05;;;15.68;;
18610;SDS011;9435;52.122;5.502;2022-10-17T09:19:17;27.23;;;15.65;;
18610;SDS011;9435;52.122;5.502;2022-10-17T09:21:46;26.25;;;15.77;;
18610;SDS011;9435;52.122;5.502;2022-10-17T09:24:19;26.55;;;15.57;;
18610;SDS011;9435;52.122;5.502;2022-10-17T09:26:50;23.50;;;14.85;;
18610;SDS011;9435;52.122;5.502;2022-10-17T09:29:19;26.02;;;15.80;;
18610;SDS011;9435;52.122;5.502;2022-10-17T09:31:57;23.95;;;15.40;;
18610;SDS011;9435;52.122;5.502;2022-10-17T09:34:28;24.95;;;15.73;;
18610;SDS011;9435;52.122;5.502;2022-10-17T09:36:57;25.77;;;15.75;;
18610;SDS011;9435;52.122;5.502;2022-10-17T09:39:26;32.65;;;17.95;;
18610;SDS011;9435;52.122;5.502;2022-10-17T09:41:56;28.20;;;16.92;;
18610;SDS011;9435;52.122;5.502;2022-10-17T09:44:27;27.75;;;16.33;;
18610;SDS011;9435;52.122;5.502;2022-10-17T09:47:00;27.27;;;16.13;;
18610;SDS011;9435;52.122;5.502;2022-10-17T09:49:34;22.67;;;15.30;;
18610;SDS011;9435;52.122;5.502;2022-10-17T09:52:04;26.58;;;16.05;;
18610;SDS011;9435;52.122;5.502;2022-10-17T09:54:38;25.63;;;15.38;;
18610;SDS011;9435;52.122;5.502;2022-10-17T09:57:08;24.77;;;15.90;;
18610;SDS011;9435;52.122;5.502;2022-10-17T09:59:38;26.40;;;15.85;;
18610;SDS011;9435;52.122;5.502;2022-10-17T10:02:09;25.70;;;15.75;;
18610;SDS011;9435;52.122;5.502;2022-10-17T10:04:50;25.50;;;15.27;;
18610;SDS011;9435;52.122;5.502;2022-10-17T10:07:18;24.98;;;15.63;;
18610;SDS011;9435;52.122;5.502;2022-10-17T10:09:47;26.00;;;15.65;;
18610;SDS011;9435;52.122;5.502;2022-10-17T10:12:15;23.52;;;14.77;;
18610;SDS011;9435;52.122;5.502;2022-10-17T10:14:43;27.83;;;16.25;;
18610;SDS011;9435;52.122;5.502;2022-10-17T10:17:25;23.80;;;15.50;;
18610;SDS011;9435;52.122;5.502;2022-10-17T10:20:02;23.45;;;15.35;;
18610;SDS011;9435;52.122;5.502;2022-10-17T10:23:05;25.63;;;15.15;;
18610;SDS011;9435;52.122;5.502;2022-10-17T10:25:33;24.60;;;15.00;;
18610;SDS011;9435;52.122;5.502;2022-10-17T10:28:01;24.90;;;14.93;;
18610;SDS011;9435;52.122;5.502;2022-10-17T10:30:35;24.05;;;15.63;;
18610;SDS011;9435;52.122;5.502;2022-10-17T10:33:03;22.55;;;14.82;;
18610;SDS011;9435;52.122;5.502;2022-10-17T10:35:31;23.20;;;14.98;;
18610;SDS011;9435;52.122;5.502;2022-10-17T10:38:00;25.92;;;15.38;;
18610;SDS011;9435;52.122;5.502;2022-10-17T10:40:31;24.02;;;15.30;;
18610;SDS011;9435;52.122;5.502;2022-10-17T10:43:01;24.05;;;15.70;;
18610;SDS011;9435;52.122;5.502;2022-10-17T10:45:38;28.30;;;16.02;;
18610;SDS011;9435;52.122;5.502;2022-10-17T10:48:13;21.50;;;14.43;;
18610;SDS011;9435;52.122;5.502;2022-10-17T10:50:46;22.88;;;14.98;;
18610;SDS011;9435;52.122;5.502;2022-10-17T10:53:24;26.52;;;15.57;;
18610;SDS011;9435;52.122;5.502;2022-10-17T10:55:57;24.73;;;15.30;;
18610;SDS011;9435;52.122;5.502;2022-10-17T10:58:31;22.67;;;13.70;;
18610;SDS011;9435;52.122;5.502;2022-10-17T11:01:06;23.70;;;14.77;;
18610;SDS011;9435;52.122;5.502;2022-10-17T11:03:52;25.38;;;15.50;;
18610;SDS011;9435;52.122;5.502;2022-10-17T11:06:26;21.55;;;14.35;;
18610;SDS011;9435;52.122;5.502;2022-10-17T11:09:00;26.63;;;15.60;;
18610;SDS011;9435;52.122;5.502;2022-10-17T11:11:37;22.58;;;14.48;;
18610;SDS011;9435;52.122;5.502;2022-10-17T11:14:09;23.15;;;14.68;;
18610;SDS011;9435;52.122;5.502;2022-10-17T11:16:41;21.75;;;14.25;;
18610;SDS011;9435;52.122;5.502;2022-10-17T11:19:16;23.88;;;14.82;;
18610;SDS011;9435;52.122;5.502;2022-10-17T11:21:53;26.77;;;15.23;;
18610;SDS011;9435;52.122;5.502;2022-10-17T11:24:29;23.52;;;14.20;;
18610;SDS011;9435;52.122;5.502;2022-10-17T11:26:59;24.27;;;14.25;;
18610;SDS011;9435;52.122;5.502;2022-10-17T11:29:30;24.60;;;14.38;;
18610;SDS011;9435;52.122;5.502;2022-10-17T11:32:00;23.15;;;14.15;;
18610;SDS011;9435;52.122;5.502;2022-10-17T11:34:34;22.88;;;13.85;;
18610;SDS011;9435;52.122;5.502;2022-10-17T11:37:08;22.50;;;14.13;;
18610;SDS011;9435;52.122;5.502;2022-10-17T11:39:40;21.50;;;13.63;;
18610;SDS011;9435;52.122;5.502;2022-10-17T11:42:13;25.08;;;13.70;;
18610;SDS011;9435;52.122;5.502;2022-10-17T11:44:44;19.73;;;13.32;;
18610;SDS011;9435;52.122;5.502;2022-10-17T11:47:17;20.25;;;12.82;;
18610;SDS011;9435;52.122;5.502;2022-10-17T11:49:54;23.23;;;13.65;;
18610;SDS011;9435;52.122;5.502;2022-10-17T11:52:40;21.88;;;13.55;;
18610;SDS011;9435;52.122;5.502;2022-10-17T11:55:10;22.77;;;14.15;;
18610;SDS011;9435;52.122;5.502;2022-10-17T11:57:48;24.02;;;13.85;;
18610;SDS011;9435;52.122;5.502;2022-10-17T12:00:31;21.27;;;13.45;;
18610;SDS011;9435;52.122;5.502;2022-10-17T12:03:15;20.33;;;13.60;;
18610;SDS011;9435;52.122;5.502;2022-10-17T12:05:54;24.77;;;14.23;;
18610;SDS011;9435;52.122;5.502;2022-10-17T12:08:24;20.88;;;13.63;;
18610;SDS011;9435;52.122;5.502;2022-10-17T12:10:59;24.50;;;14.57;;
18610;SDS011;9435;52.122;5.502;2022-10-17T12:13:47;22.73;;;14.27;;
18610;SDS011;9435;52.122;5.502;2022-10-17T12:16:37;25.20;;;14.95;;
18610;SDS011;9435;52.122;5.502;2022-10-17T12:22:05;21.75;;;14.75;;
18610;SDS011;9435;52.122;5.502;2022-10-17T12:24:44;23.45;;;13.57;;
18610;SDS011;9435;52.122;5.502;2022-10-17T12:30:14;22.02;;;14.63;;
18610;SDS011;9435;52.122;5.502;2022-10-17T12:32:59;21.52;;;13.88;;
18610;SDS011;9435;52.122;5.502;2022-10-17T12:35:30;22.98;;;14.40;;
18610;SDS011;9435;52.122;5.502;2022-10-17T12:38:00;22.00;;;13.82;;
18610;SDS011;9435;52.122;5.502;2022-10-17T12:40:51;22.67;;;13.85;;
18610;SDS011;9435;52.122;5.502;2022-10-17T12:43:36;22.23;;;13.93;;
18610;SDS011;9435;52.122;5.502;2022-10-17T12:46:11;20.48;;;13.35;;
18610;SDS011;9435;52.122;5.502;2022-10-17T12:49:01;23.27;;;14.23;;
18610;SDS011;9435;52.122;5.502;2022-10-17T12:51:29;22.10;;;13.00;;
18610;SDS011;9435;52.122;5.502;2022-10-17T12:54:49;23.27;;;14.18;;
18610;SDS011;9435;52.122;5.502;2022-10-17T12:57:24;21.33;;;13.70;;
18610;SDS011;9435;52.122;5.502;2022-10-17T12:59:57;25.75;;;13.90;;
18610;SDS011;9435;52.122;5.502;2022-10-17T13:02:27;20.60;;;14.10;;
18610;SDS011;9435;52.122;5.502;2022-10-17T13:04:58;25.10;;;13.25;;
18610;SDS011;9435;52.122;5.502;2022-10-17T13:07:32;23.58;;;13.65;;
18610;SDS011;9435;52.122;5.502;2022-10-17T13:10:05;19.85;;;13.52;;
18610;SDS011;9435;52.122;5.502;2022-10-17T13:12:44;19.63;;;13.43;;
18610;SDS011;9435;52.122;5.502;2022-10-17T13:15:14;20.25;;;13.82;;
18610;SDS011;9435;52.122;5.502;2022-10-17T13:17:43;23.90;;;15.48;;
18610;SDS011;9435;52.122;5.502;2022-10-17T13:20:17;24.25;;;15.05;;
18610;SDS011;9435;52.122;5.502;2022-10-17T13:22:47;24.52;;;15.35;;
18610;SDS011;9435;52.122;5.502;2022-10-17T13:25:17;20.60;;;14.93;;
18610;SDS011;9435;52.122;5.502;2022-10-17T13:27:45;26.08;;;15.77;;
18610;SDS011;9435;52.122;5.502;2022-10-17T13:30:24;23.73;;;15.88;;
18610;SDS011;9435;52.122;5.502;2022-10-17T13:32:52;22.38;;;15.95;;
18610;SDS011;9435;52.122;5.502;2022-10-17T13:35:24;26.83;;;16.17;;
18610;SDS011;9435;52.122;5.502;2022-10-17T13:37:53;23.10;;;16.25;;
18610;SDS011;9435;52.122;5.502;2022-10-17T13:40:23;25.42;;;15.77;;
18610;SDS011;9435;52.122;5.502;2022-10-17T13:42:53;25.67;;;15.98;;
18610;SDS011;9435;52.122;5.502;2022-10-17T13:45:23;26.05;;;15.82;;
18610;SDS011;9435;52.122;5.502;2022-10-17T13:47:55;22.80;;;15.38;;
18610;SDS011;9435;52.122;5.502;2022-10-17T13:50:26;23.42;;;15.25;;
18610;SDS011;9435;52.122;5.502;2022-10-17T13:53:07;20.15;;;14.73;;
18610;SDS011;9435;52.122;5.502;2022-10-17T13:55:56;22.45;;;14.57;;
18610;SDS011;9435;52.122;5.502;2022-10-17T13:58:28;20.92;;;14.88;;
18610;SDS011;9435;52.122;5.502;2022-10-17T14:00:59;20.88;;;14.35;;
18610;SDS011;9435;52.122;5.502;2022-10-17T14:03:26;21.45;;;14.25;;
18610;SDS011;9435;52.122;5.502;2022-10-17T14:08:49;19.90;;;14.15;;
18610;SDS011;9435;52.122;5.502;2022-10-17T14:11:25;19.17;;;13.80;;
18610;SDS011;9435;52.122;5.502;2022-10-17T14:13:55;23.55;;;14.50;;
18610;SDS011;9435;52.122;5.502;2022-10-17T14:16:24;19.52;;;13.27;;
18610;SDS011;9435;52.122;5.502;2022-10-17T14:18:58;17.95;;;12.98;;
18610;SDS011;9435;52.122;5.502;2022-10-17T14:21:25;17.55;;;12.70;;
18610;SDS011;9435;52.122;5.502;2022-10-17T14:26:51;19.42;;;11.93;;
18610;SDS011;9435;52.122;5.502;2022-10-17T14:29:21;16.85;;;12.02;;
18610;SDS011;9435;52.122;5.502;2022-10-17T14:31:55;18.92;;;12.20;;
18610;SDS011;9435;52.122;5.502;2022-10-17T14:34:26;16.27;;;11.32;;
18610;SDS011;9435;52.122;5.502;2022-10-17T14:36:58;15.10;;;10.80;;
18610;SDS011;9435;52.122;5.502;2022-10-17T14:39:26;17.83;;;11.32;;
18610;SDS011;9435;52.122;5.502;2022-10-17T14:41:55;16.35;;;11.15;;
18610;SDS011;9435;52.122;5.502;2022-10-17T14:44:24;13.70;;;10.52;;
18610;SDS011;9435;52.122;5.502;2022-10-17T14:46:56;18.33;;;11.20;;
18610;SDS011;9435;52.122;5.502;2022-10-17T14:49:27;18.98;;;12.15;;
18610;SDS011;9435;52.122;5.502;2022-10-17T14:52:19;21.13;;;12.20;;
18610;SDS011;9435;52.122;5.502;2022-10-17T14:54:52;15.05;;;11.23;;
18610;SDS011;9435;52.122;5.502;2022-10-17T14:57:26;16.90;;;11.68;;
18610;SDS011;9435;52.122;5.502;2022-10-17T15:00:06;15.77;;;10.80;;
18610;SDS011;9435;52.122;5.502;2022-10-17T15:02:35;16.25;;;10.52;;
18610;SDS011;9435;52.122;5.502;2022-10-17T15:05:02;17.98;;;10.80;;
18610;SDS011;9435;52.122;5.502;2022-10-17T15:07:29;18.98;;;10.73;;
18610;SDS011;9435;52.122;5.502;2022-10-17T15:09:56;16.15;;;11.07;;
18610;SDS011;9435;52.122;5.502;2022-10-17T15:12:23;18.02;;;11.05;;
18610;SDS011;9435;52.122;5.502;2022-10-17T15:14:52;16.15;;;11.05;;